createdAt,value
2023-04-16T00:00:57.752Z,1017.27
2023-04-16T00:01:57.841Z,1017.33
2023-04-16T00:02:57.824Z,1017.29
2023-04-16T00:03:57.876Z,1017.28
2023-04-16T00:04:57.710Z,1017.42
2023-04-16T00:05:57.659Z,1017.39
2023-04-16T00:06:57.673Z,1017.33
2023-04-16T00:07:57.651Z,1017.37
2023-04-16T00:08:57.627Z,1017.31
2023-04-16T00:09:57.606Z,1017.37
2023-04-16T00:10:57.603Z,1017.43
2023-04-16T00:11:57.617Z,1017.41
2023-04-16T00:12:57.570Z,1017.38
2023-04-16T00:13:57.554Z,1017.42
2023-04-16T00:14:57.554Z,1017.33
2023-04-16T00:15:57.526Z,1017.26
2023-04-16T00:16:57.581Z,1017.32
2023-04-16T00:17:57.524Z,1017.31
2023-04-16T00:18:57.534Z,1017.32
2023-04-16T00:19:57.475Z,1017.41
2023-04-16T00:20:57.478Z,1017.29
2023-04-16T00:21:57.465Z,1017.26
2023-04-16T00:22:57.454Z,1017.31
2023-04-16T00:23:57.426Z,1017.29
2023-04-16T00:24:57.414Z,1017.36
2023-04-16T00:25:57.403Z,1017.31
2023-04-16T00:26:57.415Z,1017.29
2023-04-16T00:27:57.372Z,1017.34
2023-04-16T00:28:57.366Z,1017.37
2023-04-16T00:29:57.360Z,1017.32
2023-04-16T00:30:57.344Z,1017.40
2023-04-16T00:31:57.333Z,1017.33
2023-04-16T00:32:57.357Z,1017.37
2023-04-16T00:33:57.291Z,1017.34
2023-04-16T00:34:57.286Z,1017.30
2023-04-16T00:35:57.278Z,1017.38
2023-04-16T00:36:57.271Z,1017.35
2023-04-16T00:37:57.234Z,1017.33
2023-04-16T00:38:57.241Z,1017.34
2023-04-16T00:39:57.234Z,1017.35
2023-04-16T00:40:57.212Z,1017.39
2023-04-16T00:41:57.227Z,1017.39
2023-04-16T00:42:57.176Z,1017.44
2023-04-16T00:43:57.157Z,1017.42
2023-04-16T00:44:57.164Z,1017.41
2023-04-16T00:45:57.227Z,1017.44
2023-04-16T00:46:57.139Z,1017.39
2023-04-16T00:47:58.778Z,1017.42
2023-04-16T00:48:57.108Z,1017.42
2023-04-16T00:49:57.070Z,1017.43
2023-04-16T00:50:57.073Z,1017.39
2023-04-16T00:51:57.066Z,1017.43
2023-04-16T00:52:57.042Z,1017.42
2023-04-16T00:53:57.056Z,1017.42
2023-04-16T00:54:57.022Z,1017.47
2023-04-16T00:55:57.006Z,1017.42
2023-04-16T00:56:57.003Z,1017.44
2023-04-16T00:57:56.982Z,1017.41
2023-04-16T00:58:56.969Z,1017.43
2023-04-16T00:59:56.944Z,1017.43
2023-04-16T01:00:56.942Z,1017.44
2023-04-16T01:01:57.003Z,1017.48
2023-04-16T01:02:57.056Z,1017.50
2023-04-16T01:03:57.054Z,1017.43
2023-04-16T01:04:56.911Z,1017.40
2023-04-16T01:05:56.882Z,1017.45
2023-04-16T01:06:56.877Z,1017.47
2023-04-16T01:07:56.856Z,1017.46
2023-04-16T01:08:56.836Z,1017.50
2023-04-16T01:09:56.844Z,1017.48
2023-04-16T01:10:56.825Z,1017.49
2023-04-16T01:13:06.615Z,1017.47
2023-04-16T01:14:06.593Z,1017.51
2023-04-16T01:15:06.575Z,1017.53
2023-04-16T01:16:06.600Z,1017.49
2023-04-16T01:17:06.577Z,1017.51
2023-04-16T01:18:06.623Z,1017.53
2023-04-16T01:19:06.515Z,1017.52
2023-04-16T01:20:06.504Z,1017.55
2023-04-16T01:21:06.490Z,1017.50
2023-04-16T01:22:06.486Z,1017.45
2023-04-16T01:23:06.473Z,1017.57
2023-04-16T01:24:06.453Z,1017.52
2023-04-16T01:25:06.449Z,1017.50
2023-04-16T01:26:06.422Z,1017.52
2023-04-16T01:27:06.441Z,1017.56
2023-04-16T01:28:06.396Z,1017.56
2023-04-16T01:29:06.559Z,1017.56
2023-04-16T01:30:06.366Z,1017.59
2023-04-16T01:31:06.393Z,1017.55
2023-04-16T01:32:06.353Z,1017.60
2023-04-16T01:33:06.339Z,1017.62
2023-04-16T01:34:06.327Z,1017.61
2023-04-16T01:35:06.310Z,1017.59
2023-04-16T01:36:06.302Z,1017.61
2023-04-16T01:37:06.313Z,1017.57
2023-04-16T01:38:06.278Z,1017.60
2023-04-16T01:39:06.292Z,1017.61
2023-04-16T01:40:06.245Z,1017.57
2023-04-16T01:41:06.241Z,1017.62
2023-04-16T01:42:06.245Z,1017.58
2023-04-16T01:43:06.198Z,1017.64
2023-04-16T01:44:06.191Z,1017.57
2023-04-16T01:45:06.175Z,1017.59
2023-04-16T01:46:06.155Z,1017.63
2023-04-16T01:47:06.167Z,1017.52
2023-04-16T01:48:06.142Z,1017.59
2023-04-16T01:49:06.123Z,1017.64
2023-04-16T01:50:06.114Z,1017.60
2023-04-16T01:51:06.118Z,1017.61
2023-04-16T01:52:06.092Z,1017.63
2023-04-16T01:53:06.080Z,1017.61
2023-04-16T01:54:06.056Z,1017.60
2023-04-16T01:55:06.045Z,1017.62
2023-04-16T01:56:06.040Z,1017.59
2023-04-16T01:57:06.035Z,1017.70
2023-04-16T01:58:05.992Z,1017.66
2023-04-16T01:59:05.980Z,1017.63
2023-04-16T02:00:05.977Z,1017.59
2023-04-16T02:01:06.056Z,1017.56
2023-04-16T02:02:06.028Z,1017.55
2023-04-16T02:03:06.071Z,1017.57
2023-04-16T02:04:06.047Z,1017.62
2023-04-16T02:05:05.934Z,1017.53
2023-04-16T02:06:05.891Z,1017.60
2023-04-16T02:07:05.899Z,1017.61
2023-04-16T02:08:05.867Z,1017.60
2023-04-16T02:09:05.854Z,1017.54
2023-04-16T02:10:05.840Z,1017.58
2023-04-16T02:11:05.834Z,1017.56
2023-04-16T02:12:05.838Z,1017.59
2023-04-16T02:13:05.798Z,1017.58
2023-04-16T02:14:05.783Z,1017.58
2023-04-16T02:15:05.774Z,1017.63
2023-04-16T02:16:05.771Z,1017.57
2023-04-16T02:17:05.759Z,1017.60
2023-04-16T02:18:05.818Z,1017.58
2023-04-16T02:19:05.726Z,1017.61
2023-04-16T02:20:05.702Z,1017.59
2023-04-16T02:21:05.704Z,1017.60
2023-04-16T02:22:05.709Z,1017.56
2023-04-16T02:23:05.667Z,1017.56
2023-04-16T02:24:05.647Z,1017.53
2023-04-16T02:25:05.639Z,1017.56
2023-04-16T02:26:05.614Z,1017.58
2023-04-16T02:27:05.644Z,1017.57
2023-04-16T02:28:05.601Z,1017.56
2023-04-16T02:29:05.577Z,1017.56
2023-04-16T02:30:05.576Z,1017.58
2023-04-16T02:31:05.559Z,1017.58
2023-04-16T02:32:05.620Z,1017.56
2023-04-16T02:33:05.672Z,1017.59
2023-04-16T02:34:05.522Z,1017.54
2023-04-16T02:35:05.512Z,1017.55
2023-04-16T02:36:05.498Z,1017.53
2023-04-16T02:37:05.513Z,1017.53
2023-04-16T02:38:05.459Z,1017.56
2023-04-16T02:39:05.450Z,1017.54
2023-04-16T02:40:05.440Z,1017.56
2023-04-16T02:41:05.419Z,1017.57
2023-04-16T02:42:05.437Z,1017.58
2023-04-16T02:43:05.400Z,1017.61
2023-04-16T02:44:05.389Z,1017.63
2023-04-16T02:45:05.382Z,1017.58
2023-04-16T02:46:05.394Z,1017.58
2023-04-16T02:47:05.365Z,1017.63
2023-04-16T02:48:05.339Z,1017.63
2023-04-16T02:49:05.322Z,1017.58
2023-04-16T02:50:05.302Z,1017.62
2023-04-16T02:51:05.312Z,1017.55
2023-04-16T02:52:05.290Z,1017.60
2023-04-16T02:53:05.278Z,1017.59
2023-04-16T02:54:05.255Z,1017.58
2023-04-16T02:55:05.242Z,1017.63
2023-04-16T02:56:05.254Z,1017.62
2023-04-16T02:57:05.234Z,1017.64
2023-04-16T02:58:05.200Z,1017.60
2023-04-16T02:59:05.200Z,1017.62
2023-04-16T03:00:05.176Z,1017.61
2023-04-16T03:01:05.203Z,1017.66
2023-04-16T03:02:05.221Z,1017.59
2023-04-16T03:03:05.174Z,1017.62
2023-04-16T03:04:05.150Z,1017.66
2023-04-16T03:05:05.132Z,1017.58
2023-04-16T03:06:05.092Z,1017.63
2023-04-16T03:07:05.102Z,1017.57
2023-04-16T03:08:05.060Z,1017.66
2023-04-16T03:09:05.063Z,1017.56
2023-04-16T03:10:05.028Z,1017.63
2023-04-16T03:11:05.034Z,1017.63
2023-04-16T03:12:05.032Z,1017.65
2023-04-16T03:13:05.006Z,1017.59
2023-04-16T03:14:04.989Z,1017.63
2023-04-16T03:15:04.986Z,1017.62
2023-04-16T03:16:04.968Z,1017.66
2023-04-16T03:17:04.959Z,1017.66
2023-04-16T03:18:04.946Z,1017.67
2023-04-16T03:19:04.927Z,1017.68
2023-04-16T03:20:05.004Z,1017.72
2023-04-16T03:21:04.895Z,1017.68
2023-04-16T03:22:04.929Z,1017.70
2023-04-16T03:23:04.861Z,1017.73
2023-04-16T03:24:04.864Z,1017.75
2023-04-16T03:25:04.854Z,1017.75
2023-04-16T03:26:04.824Z,1017.78
2023-04-16T03:27:04.855Z,1017.73
2023-04-16T03:28:04.809Z,1017.74
2023-04-16T03:29:04.798Z,1017.75
2023-04-16T03:30:04.778Z,1017.72
2023-04-16T03:31:04.856Z,1017.79
2023-04-16T03:32:04.777Z,1017.73
2023-04-16T03:33:04.746Z,1017.69
2023-04-16T03:34:04.725Z,1017.74
2023-04-16T03:35:04.722Z,1017.72
2023-04-16T03:36:04.704Z,1017.72
2023-04-16T03:37:04.700Z,1017.72
2023-04-16T03:38:04.663Z,1017.69
2023-04-16T03:39:04.656Z,1017.73
2023-04-16T03:40:04.692Z,1017.71
2023-04-16T03:41:04.636Z,1017.74
2023-04-16T03:42:04.649Z,1017.70
2023-04-16T03:43:04.622Z,1017.70
2023-04-16T03:44:04.599Z,1017.71
2023-04-16T03:45:04.612Z,1017.69
2023-04-16T03:46:04.609Z,1017.67
2023-04-16T03:47:04.567Z,1017.70
2023-04-16T03:48:04.535Z,1017.74
2023-04-16T03:49:04.528Z,1017.74
2023-04-16T03:50:04.523Z,1017.75
2023-04-16T03:51:04.495Z,1017.76
2023-04-16T03:52:04.506Z,1017.68
2023-04-16T03:53:04.478Z,1017.74
2023-04-16T03:54:04.464Z,1017.73
2023-04-16T03:55:04.462Z,1017.78
2023-04-16T03:56:04.450Z,1017.78
2023-04-16T03:57:04.447Z,1017.76
2023-04-16T03:58:04.399Z,1017.76
2023-04-16T03:59:04.419Z,1017.71
2023-04-16T04:00:04.422Z,1017.76
2023-04-16T04:01:04.368Z,1017.74
2023-04-16T04:02:04.463Z,1017.74
2023-04-16T04:03:04.577Z,1017.73
2023-04-16T04:04:04.496Z,1017.73
2023-04-16T04:05:04.436Z,1017.73
2023-04-16T04:06:04.296Z,1017.71
2023-04-16T04:07:04.310Z,1017.76
2023-04-16T04:08:04.280Z,1017.75
2023-04-16T04:09:04.272Z,1017.79
2023-04-16T04:10:04.322Z,1017.78
2023-04-16T04:11:04.253Z,1017.83
2023-04-16T04:12:04.234Z,1017.80
2023-04-16T04:13:04.219Z,1017.77
2023-04-16T04:14:04.205Z,1017.81
2023-04-16T04:15:04.330Z,1017.84
2023-04-16T04:16:04.213Z,1017.78
2023-04-16T04:17:04.172Z,1017.81
2023-04-16T04:18:04.157Z,1017.78
2023-04-16T04:19:04.129Z,1017.82
2023-04-16T04:20:04.112Z,1017.83
2023-04-16T04:21:04.104Z,1017.78
2023-04-16T04:22:04.100Z,1017.85
2023-04-16T04:23:04.083Z,1017.85
2023-04-16T04:24:04.063Z,1017.82
2023-04-16T04:25:04.079Z,1017.81
2023-04-16T04:26:04.100Z,1017.84
2023-04-16T04:27:04.027Z,1017.85
2023-04-16T04:28:04.013Z,1017.86
2023-04-16T04:29:04.024Z,1017.85
2023-04-16T04:30:03.982Z,1017.90
2023-04-16T04:31:03.985Z,1017.86
2023-04-16T04:32:04.074Z,1017.88
2023-04-16T04:33:04.027Z,1017.89
2023-04-16T04:34:03.925Z,1017.92
2023-04-16T04:35:03.926Z,1017.93
2023-04-16T04:36:03.929Z,1017.94
2023-04-16T04:37:03.907Z,1017.95
2023-04-16T04:38:03.890Z,1017.93
2023-04-16T04:39:03.878Z,1017.93
2023-04-16T04:40:03.872Z,1017.96
2023-04-16T04:41:03.876Z,1017.95
2023-04-16T04:42:03.857Z,1018.03
2023-04-16T04:43:03.804Z,1018.00
2023-04-16T04:44:03.797Z,1018.03
2023-04-16T04:45:03.826Z,1017.98
2023-04-16T04:46:03.926Z,1018.00
2023-04-16T04:47:03.787Z,1018.02
2023-04-16T04:48:03.797Z,1017.99
2023-04-16T04:49:03.767Z,1018.01
2023-04-16T04:50:03.762Z,1018.04
2023-04-16T04:51:05.023Z,1017.98
2023-04-16T04:52:03.738Z,1018.04
2023-04-16T04:53:03.682Z,1018.00
2023-04-16T04:54:03.753Z,1018.06
2023-04-16T04:55:03.665Z,1018.05
2023-04-16T04:56:12.478Z,1018.05
2023-04-16T04:57:04.638Z,1018.06
2023-04-16T04:58:03.625Z,1018.11
2023-04-16T04:59:03.603Z,1018.04
2023-04-16T05:00:03.587Z,1018.01
2023-04-16T05:01:03.677Z,1018.06
2023-04-16T05:02:03.662Z,1018.06
2023-04-16T05:03:03.637Z,1018.05
2023-04-16T05:04:03.564Z,1018.07
2023-04-16T05:05:03.544Z,1018.07
2023-04-16T05:06:03.537Z,1018.10
2023-04-16T05:07:03.503Z,1018.10
2023-04-16T05:08:03.480Z,1018.09
2023-04-16T05:09:03.469Z,1018.12
2023-04-16T05:10:03.465Z,1018.11
2023-04-16T05:11:03.451Z,1018.10
2023-04-16T05:12:03.430Z,1018.10
2023-04-16T05:13:03.418Z,1018.10
2023-04-16T05:14:03.396Z,1018.16
2023-04-16T05:15:03.384Z,1018.18
2023-04-16T05:16:03.420Z,1018.17
2023-04-16T05:17:03.532Z,1018.21
2023-04-16T05:18:03.412Z,1018.25
2023-04-16T05:19:03.340Z,1018.24
2023-04-16T05:20:03.332Z,1018.21
2023-04-16T05:21:03.308Z,1018.25
2023-04-16T05:22:03.315Z,1018.23
2023-04-16T05:23:03.295Z,1018.28
2023-04-16T05:24:03.281Z,1018.29
2023-04-16T05:25:03.272Z,1018.26
2023-04-16T05:26:03.271Z,1018.27
2023-04-16T05:27:03.236Z,1018.32
2023-04-16T05:28:03.237Z,1018.31
2023-04-16T05:29:03.231Z,1018.29
2023-04-16T05:30:03.196Z,1018.33
2023-04-16T05:31:03.211Z,1018.32
2023-04-16T05:32:03.186Z,1018.31
2023-04-16T05:33:03.152Z,1018.34
2023-04-16T05:34:03.147Z,1018.31
2023-04-16T05:35:03.192Z,1018.31
2023-04-16T05:36:03.119Z,1018.38
2023-04-16T05:37:03.108Z,1018.37
2023-04-16T05:38:03.083Z,1018.36
2023-04-16T05:39:03.062Z,1018.39
2023-04-16T05:40:03.067Z,1018.37
2023-04-16T05:41:03.065Z,1018.42
2023-04-16T05:42:03.062Z,1018.41
2023-04-16T05:43:03.014Z,1018.38
2023-04-16T05:44:03.037Z,1018.47
2023-04-16T05:45:02.979Z,1018.44
2023-04-16T05:46:03.046Z,1018.46
2023-04-16T05:47:02.963Z,1018.41
2023-04-16T05:48:02.949Z,1018.47
2023-04-16T05:49:02.938Z,1018.48
2023-04-16T05:50:02.926Z,1018.49
2023-04-16T05:51:02.924Z,1018.50
2023-04-16T05:52:02.892Z,1018.52
2023-04-16T05:53:02.883Z,1018.48
2023-04-16T05:54:02.868Z,1018.48
2023-04-16T05:55:02.846Z,1018.51
2023-04-16T05:56:02.858Z,1018.49
2023-04-16T05:57:02.823Z,1018.52
2023-04-16T05:58:02.818Z,1018.58
2023-04-16T05:59:02.805Z,1018.55
2023-04-16T06:00:02.805Z,1018.56
2023-04-16T06:01:02.789Z,1018.58
2023-04-16T06:02:02.814Z,1018.60
2023-04-16T06:03:02.977Z,1018.64
2023-04-16T06:04:02.854Z,1018.61
2023-04-16T06:05:02.779Z,1018.69
2023-04-16T06:06:02.901Z,1018.69
2023-04-16T06:07:02.693Z,1018.69
2023-04-16T06:08:02.684Z,1018.69
2023-04-16T06:09:02.677Z,1018.68
2023-04-16T06:10:02.666Z,1018.68
2023-04-16T06:11:02.674Z,1018.73
2023-04-16T06:12:02.642Z,1018.73
2023-04-16T06:13:02.609Z,1018.73
2023-04-16T06:14:02.601Z,1018.74
2023-04-16T06:15:02.592Z,1018.74
2023-04-16T06:16:02.644Z,1018.76
2023-04-16T06:17:02.562Z,1018.73
2023-04-16T06:18:02.576Z,1018.75
2023-04-16T06:19:02.538Z,1018.76
2023-04-16T06:20:02.522Z,1018.75
2023-04-16T06:21:02.545Z,1018.78
2023-04-16T06:22:02.512Z,1018.79
2023-04-16T06:23:02.501Z,1018.86
2023-04-16T06:24:02.473Z,1018.90
2023-04-16T06:25:02.449Z,1018.83
2023-04-16T06:26:02.475Z,1018.83
2023-04-16T06:27:02.449Z,1018.88
2023-04-16T06:28:02.440Z,1018.86
2023-04-16T06:29:02.428Z,1018.87
2023-04-16T06:30:02.402Z,1018.86
2023-04-16T06:31:02.443Z,1018.87
2023-04-16T06:32:02.376Z,1018.86
2023-04-16T06:33:02.370Z,1018.87
2023-04-16T06:34:02.336Z,1018.89
2023-04-16T06:35:02.347Z,1018.87
2023-04-16T06:36:02.358Z,1018.92
2023-04-16T06:37:02.292Z,1018.91
2023-04-16T06:38:02.286Z,1018.92
2023-04-16T06:39:02.303Z,1018.97
2023-04-16T06:40:02.276Z,1018.94
2023-04-16T06:41:02.256Z,1018.94
2023-04-16T06:42:02.240Z,1018.97
2023-04-16T06:43:02.222Z,1018.99
2023-04-16T06:44:02.253Z,1018.99
2023-04-16T06:45:02.222Z,1018.98
2023-04-16T06:46:02.201Z,1018.97
2023-04-16T06:47:02.244Z,1018.96
2023-04-16T06:48:02.206Z,1019.04
2023-04-16T06:49:02.151Z,1019.01
2023-04-16T06:50:02.124Z,1019.04
2023-04-16T06:51:02.172Z,1019.01
2023-04-16T06:52:04.531Z,1019.08
2023-04-16T06:53:02.070Z,1019.04
2023-04-16T06:54:02.077Z,1019.07
2023-04-16T06:55:02.123Z,1019.06
2023-04-16T06:56:02.067Z,1019.06
2023-04-16T06:57:02.094Z,1019.06
2023-04-16T06:58:02.031Z,1019.04
2023-04-16T06:59:02.013Z,1019.06
2023-04-16T07:00:02.071Z,1019.12
2023-04-16T07:01:02.082Z,1019.07
2023-04-16T07:02:02.126Z,1019.10
2023-04-16T07:03:02.366Z,1019.09
2023-04-16T07:04:02.313Z,1019.12
2023-04-16T07:05:01.922Z,1019.11
2023-04-16T07:06:01.934Z,1019.10
2023-04-16T07:07:01.898Z,1019.11
2023-04-16T07:08:01.962Z,1019.09
2023-04-16T07:09:01.867Z,1019.15
2023-04-16T07:10:01.864Z,1019.16
2023-04-16T07:11:01.867Z,1019.13
2023-04-16T07:12:08.853Z,1019.16
2023-04-16T07:13:01.812Z,1019.14
2023-04-16T07:14:01.819Z,1019.16
2023-04-16T07:15:01.792Z,1019.19
2023-04-16T07:16:01.836Z,1019.18
2023-04-16T07:17:01.803Z,1019.17
2023-04-16T07:18:01.813Z,1019.17
2023-04-16T07:19:01.773Z,1019.15
2023-04-16T07:20:01.745Z,1019.17
2023-04-16T07:21:01.725Z,1019.14
2023-04-16T07:22:01.720Z,1019.16
2023-04-16T07:23:01.684Z,1019.20
2023-04-16T07:24:01.718Z,1019.18
2023-04-16T07:25:01.672Z,1019.22
2023-04-16T07:26:01.686Z,1019.16
2023-04-16T07:27:01.647Z,1019.16
2023-04-16T07:28:01.634Z,1019.19
2023-04-16T07:29:01.611Z,1019.20
2023-04-16T07:30:01.727Z,1019.20
2023-04-16T07:31:01.596Z,1019.21
2023-04-16T07:32:01.619Z,1019.19
2023-04-16T07:33:01.610Z,1019.21
2023-04-16T07:34:01.548Z,1019.21
2023-04-16T07:35:01.530Z,1019.21
2023-04-16T07:36:01.573Z,1019.21
2023-04-16T07:37:01.511Z,1019.21
2023-04-16T07:38:01.490Z,1019.22
2023-04-16T07:39:01.501Z,1019.20
2023-04-16T07:40:01.479Z,1019.23
2023-04-16T07:41:01.453Z,1019.23
2023-04-16T07:42:01.443Z,1019.25
2023-04-16T07:43:01.422Z,1019.24
2023-04-16T07:44:01.446Z,1019.22
2023-04-16T07:45:01.414Z,1019.21
2023-04-16T07:46:01.495Z,1019.26
2023-04-16T07:47:02.864Z,1019.32
2023-04-16T07:48:01.517Z,1019.28
2023-04-16T07:49:01.411Z,1019.32
2023-04-16T07:50:01.345Z,1019.29
2023-04-16T07:51:01.329Z,1019.27
2023-04-16T07:52:01.374Z,1019.35
2023-04-16T07:53:01.304Z,1019.31
2023-04-16T07:54:01.288Z,1019.35
2023-04-16T07:55:01.268Z,1019.33
2023-04-16T07:56:01.273Z,1019.35
2023-04-16T07:57:01.248Z,1019.34
2023-04-16T07:58:01.272Z,1019.38
2023-04-16T07:59:14.433Z,1019.36
2023-04-16T08:00:02.271Z,1019.32
2023-04-16T08:01:01.196Z,1019.32
2023-04-16T08:02:01.201Z,1019.35
2023-04-16T08:03:01.336Z,1019.38
2023-04-16T08:04:01.289Z,1019.36
2023-04-16T08:05:01.162Z,1019.40
2023-04-16T08:06:01.127Z,1019.46
2023-04-16T08:07:01.109Z,1019.43
2023-04-16T08:08:01.112Z,1019.43
2023-04-16T08:09:01.085Z,1019.39
2023-04-16T08:10:01.097Z,1019.41
2023-04-16T08:11:01.059Z,1019.45
2023-04-16T08:12:01.070Z,1019.43
2023-04-16T08:13:01.040Z,1019.49
2023-04-16T08:14:01.016Z,1019.51
2023-04-16T08:15:01.029Z,1019.45
2023-04-16T08:16:01.012Z,1019.50
2023-04-16T08:17:01.001Z,1019.50
2023-04-16T08:18:00.976Z,1019.55
2023-04-16T08:19:00.984Z,1019.50
2023-04-16T08:20:01.003Z,1019.56
2023-04-16T08:21:00.921Z,1019.54
2023-04-16T08:22:00.913Z,1019.57
2023-04-16T08:23:00.885Z,1019.61
2023-04-16T08:24:00.922Z,1019.55
2023-04-16T08:25:00.885Z,1019.55
2023-04-16T08:26:00.880Z,1019.58
2023-04-16T08:27:11.440Z,1019.56
2023-04-16T08:28:01.878Z,1019.60
2023-04-16T08:29:00.803Z,1019.60
2023-04-16T08:30:00.845Z,1019.59
2023-04-16T08:31:00.811Z,1019.62
2023-04-16T08:32:00.789Z,1019.61
2023-04-16T08:33:00.812Z,1019.61
2023-04-16T08:34:00.759Z,1019.59
2023-04-16T08:35:00.763Z,1019.59
2023-04-16T08:36:00.739Z,1019.57
2023-04-16T08:37:00.724Z,1019.61
2023-04-16T08:38:02.273Z,1019.60
2023-04-16T08:39:00.704Z,1019.63
2023-04-16T08:40:00.703Z,1019.63
2023-04-16T08:41:00.666Z,1019.65
2023-04-16T08:42:00.651Z,1019.68
2023-04-16T08:43:00.614Z,1019.66
2023-04-16T08:44:00.624Z,1019.70
2023-04-16T08:45:00.594Z,1019.64
2023-04-16T08:46:00.622Z,1019.67
2023-04-16T08:47:00.735Z,1019.68
2023-04-16T08:48:00.638Z,1019.72
2023-04-16T08:49:00.545Z,1019.63
2023-04-16T08:50:00.570Z,1019.66
2023-04-16T08:51:00.533Z,1019.68
2023-04-16T08:52:00.507Z,1019.71
2023-04-16T08:53:00.497Z,1019.68
2023-04-16T08:54:00.488Z,1019.66
2023-04-16T08:55:00.543Z,1019.68
2023-04-16T08:56:00.450Z,1019.70
2023-04-16T08:57:00.447Z,1019.68
2023-04-16T08:58:00.417Z,1019.72
2023-04-16T08:59:00.410Z,1019.77
2023-04-16T09:00:00.428Z,1019.79
2023-04-16T09:01:00.426Z,1019.74
2023-04-16T09:02:00.484Z,1019.72
2023-04-16T09:03:00.474Z,1019.72
2023-04-16T09:04:00.658Z,1019.73
2023-04-16T09:05:00.367Z,1019.74
2023-04-16T09:06:00.324Z,1019.79
2023-04-16T09:07:00.311Z,1019.79
2023-04-16T09:08:00.290Z,1019.69
2023-04-16T09:09:00.278Z,1019.74
2023-04-16T09:10:00.266Z,1019.76
2023-04-16T09:11:00.258Z,1019.67
2023-04-16T09:12:00.247Z,1019.66
2023-04-16T09:13:00.224Z,1019.71
2023-04-16T09:14:00.216Z,1019.71
2023-04-16T09:15:00.234Z,1019.67
2023-04-16T09:16:00.342Z,1019.69
2023-04-16T09:17:00.181Z,1019.73
2023-04-16T09:18:00.194Z,1019.69
2023-04-16T09:19:00.138Z,1019.66
2023-04-16T09:20:00.194Z,1019.67
2023-04-16T09:21:00.135Z,1019.72
2023-04-16T09:22:00.148Z,1019.70
2023-04-16T09:23:00.123Z,1019.71
2023-04-16T09:24:00.150Z,1019.70
2023-04-16T09:25:00.092Z,1019.73
2023-04-16T09:26:00.085Z,1019.73
2023-04-16T09:27:00.043Z,1019.73
2023-04-16T09:28:00.035Z,1019.77
2023-04-16T09:29:00.015Z,1019.73
2023-04-16T09:30:00.015Z,1019.75
2023-04-16T09:30:59.979Z,1019.75
2023-04-16T09:32:00.020Z,1019.77
2023-04-16T09:33:00.022Z,1019.80
2023-04-16T09:33:59.941Z,1019.78
2023-04-16T09:34:59.942Z,1019.79
2023-04-16T09:35:59.908Z,1019.77
2023-04-16T09:36:59.903Z,1019.87
2023-04-16T09:37:59.882Z,1019.75
2023-04-16T09:38:59.893Z,1019.75
2023-04-16T09:39:59.885Z,1019.80
2023-04-16T09:40:59.854Z,1019.82
2023-04-16T09:41:59.851Z,1019.78
2023-04-16T09:42:59.827Z,1019.81
2023-04-16T09:43:59.814Z,1019.83
2023-04-16T09:45:01.384Z,1019.79
2023-04-16T09:45:59.806Z,1019.80
2023-04-16T09:46:59.764Z,1019.84
2023-04-16T09:47:59.803Z,1019.82
2023-04-16T09:48:59.749Z,1019.79
2023-04-16T09:49:59.746Z,1019.83
2023-04-16T09:50:59.720Z,1019.83
2023-04-16T09:51:59.709Z,1019.82
2023-04-16T09:52:59.712Z,1019.84
2023-04-16T09:53:59.667Z,1019.84
2023-04-16T09:54:59.687Z,1019.84
2023-04-16T09:55:59.650Z,1019.86
2023-04-16T09:56:59.650Z,1019.85
2023-04-16T09:57:59.635Z,1019.82
2023-04-16T09:58:59.610Z,1019.84
2023-04-16T09:59:59.628Z,1019.89
2023-04-16T10:00:59.670Z,1019.86
2023-04-16T10:02:15.771Z,1019.86
2023-04-16T10:03:00.644Z,1019.90
2023-04-16T10:03:59.693Z,1019.88
2023-04-16T10:04:59.554Z,1019.89
2023-04-16T10:05:59.524Z,1019.91
2023-04-16T10:06:59.521Z,1019.88
2023-04-16T10:07:59.503Z,1019.87
2023-04-16T10:08:59.487Z,1019.89
2023-04-16T10:09:59.488Z,1019.93
2023-04-16T10:10:59.454Z,1019.95
2023-04-16T10:11:59.450Z,1019.96
2023-04-16T10:12:59.438Z,1019.99
2023-04-16T10:13:59.410Z,1019.97
2023-04-16T10:14:59.429Z,1020.01
2023-04-16T10:15:59.402Z,1020.00
2023-04-16T10:16:59.600Z,1020.00
2023-04-16T10:17:59.403Z,1019.98
2023-04-16T10:18:59.347Z,1019.92
2023-04-16T10:19:59.379Z,1019.94
2023-04-16T10:20:59.342Z,1019.91
2023-04-16T10:21:59.321Z,1019.92
2023-04-16T10:22:59.295Z,1019.89
2023-04-16T10:23:59.276Z,1019.91
2023-04-16T10:24:59.284Z,1019.91
2023-04-16T10:25:59.255Z,1019.93
2023-04-16T10:26:59.273Z,1019.94
2023-04-16T10:27:59.246Z,1019.94
2023-04-16T10:28:59.228Z,1019.90
2023-04-16T10:29:59.222Z,1019.97
2023-04-16T10:30:59.231Z,1019.95
2023-04-16T10:31:59.181Z,1019.97
2023-04-16T10:33:00.653Z,1019.89
2023-04-16T10:33:59.148Z,1019.89
2023-04-16T10:34:59.155Z,1019.90
2023-04-16T10:36:06.968Z,1019.92
2023-04-16T10:37:00.165Z,1019.93
2023-04-16T10:37:59.080Z,1019.93
2023-04-16T10:38:59.135Z,1019.89
2023-04-16T10:39:59.109Z,1019.91
2023-04-16T10:40:59.068Z,1019.87
2023-04-16T10:41:59.048Z,1019.94
2023-04-16T10:42:59.041Z,1019.86
2023-04-16T10:43:59.018Z,1019.85
2023-04-16T10:44:59.023Z,1019.89
2023-04-16T10:45:58.998Z,1019.87
2023-04-16T10:46:58.980Z,1019.86
2023-04-16T10:47:59.041Z,1019.87
2023-04-16T10:48:58.949Z,1019.84
2023-04-16T10:49:58.956Z,1019.87
2023-04-16T10:50:58.920Z,1019.85
2023-04-16T10:51:58.905Z,1019.82
2023-04-16T10:52:58.893Z,1019.80
2023-04-16T10:53:58.881Z,1019.75
2023-04-16T10:54:58.904Z,1019.84
2023-04-16T10:55:58.854Z,1019.76
2023-04-16T10:56:58.858Z,1019.81
2023-04-16T10:57:58.825Z,1019.78
2023-04-16T10:58:58.827Z,1019.79
2023-04-16T10:59:58.810Z,1019.83
2023-04-16T11:00:58.783Z,1019.79
2023-04-16T11:01:58.848Z,1019.80
2023-04-16T11:02:58.847Z,1019.76
2023-04-16T11:03:58.983Z,1019.80
2023-04-16T11:04:58.950Z,1019.81
2023-04-16T11:05:58.710Z,1019.81
2023-04-16T11:06:58.710Z,1019.82
2023-04-16T11:07:58.686Z,1019.83
2023-04-16T11:08:58.678Z,1019.89
2023-04-16T11:09:58.674Z,1019.87
2023-04-16T11:10:58.664Z,1019.82
2023-04-16T11:11:58.654Z,1019.88
2023-04-16T11:12:58.626Z,1019.82
2023-04-16T11:13:58.605Z,1019.86
2023-04-16T11:14:58.633Z,1019.85
2023-04-16T11:15:58.615Z,1019.71
2023-04-16T11:16:58.568Z,1019.80
2023-04-16T11:17:58.618Z,1019.67
2023-04-16T11:18:58.537Z,1019.71
2023-04-16T11:19:58.560Z,1019.65
2023-04-16T11:20:58.522Z,1019.60
2023-04-16T11:21:58.507Z,1019.72
2023-04-16T11:22:58.508Z,1019.65
2023-04-16T11:23:58.462Z,1019.61
2023-04-16T11:24:58.484Z,1019.68
2023-04-16T11:25:58.458Z,1019.58
2023-04-16T11:26:58.432Z,1019.63
2023-04-16T11:27:58.426Z,1019.51
2023-04-16T11:28:58.407Z,1019.63
2023-04-16T11:29:58.414Z,1019.53
2023-04-16T11:30:58.410Z,1019.51
2023-04-16T11:31:58.384Z,1019.57
2023-04-16T11:32:58.442Z,1019.59
2023-04-16T11:33:58.350Z,1019.63
2023-04-16T11:34:58.362Z,1019.63
2023-04-16T11:35:58.332Z,1019.58
2023-04-16T11:36:58.300Z,1019.75
2023-04-16T11:37:58.278Z,1019.58
2023-04-16T11:38:58.289Z,1019.71
2023-04-16T11:39:58.265Z,1019.58
2023-04-16T11:40:58.243Z,1019.59
2023-04-16T11:41:58.260Z,1019.50
2023-04-16T11:42:59.790Z,1019.50
2023-04-16T11:43:58.220Z,1019.51
2023-04-16T11:44:58.218Z,1019.53
2023-04-16T11:45:58.188Z,1019.62
2023-04-16T11:46:58.201Z,1019.62
2023-04-16T11:47:58.239Z,1019.59
2023-04-16T11:48:58.155Z,1019.59
2023-04-16T11:49:58.131Z,1019.66
2023-04-16T11:50:58.121Z,1019.69
2023-04-16T11:51:58.120Z,1019.67
2023-04-16T11:52:58.108Z,1019.71
2023-04-16T11:53:58.107Z,1019.71
2023-04-16T11:54:58.117Z,1019.67
2023-04-16T11:55:58.054Z,1019.68
2023-04-16T11:56:58.050Z,1019.69
2023-04-16T11:57:58.055Z,1019.70
2023-04-16T11:58:58.029Z,1019.71
2023-04-16T12:00:02.474Z,1019.73
2023-04-16T12:00:59.033Z,1019.74
2023-04-16T12:01:58.101Z,1019.72
2023-04-16T12:02:58.052Z,1019.71
2023-04-16T12:03:58.177Z,1019.69
2023-04-16T12:04:57.961Z,1019.66
2023-04-16T12:05:57.918Z,1019.69
2023-04-16T12:06:57.913Z,1019.70